Time;durP1;ratioP1;P1;durP2;ratioP2;P2;SDS_P1;SDS_P2;PMS_P1;PMS_P2;Temp;Humidity;BMP_temperature;BMP_pressure;BME280_temperature;BME280_humidity;BME280_pressure;Samples;Min_cycle;Max_cycle;Signal;HPM_P1;HPM_P2
2023/03/15 00:00:00;;;;;;;2.2;2.2;;;;;;;2.7;100.0;100990;;;;
2023/03/15 00:01:03;;;;;;;2.2;2.2;;;;;;;2.7;100.0;100990;;;;
2023/03/15 00:02:00;;;;;;;2.2;2.2;;;;;;;2.7;100.0;100990;;;;
2023/03/15 00:03:03;;;;;;;2.2;2.2;;;;;;;2.7;100.0;100990;;;;
2023/03/15 00:04:00;;;;;;;2.2;2.2;;;;;;;2.8;100.0;100980;;;;
2023/03/15 00:05:00;;;;;;;2.2;2.2;;;;;;;2.8;100.0;100980;;;;
2023/03/15 00:06:00;;;;;;;2.2;2.2;;;;;;;2.8;100.0;100980;;;;
2023/03/15 00:07:00;;;;;;;2.2;2.2;;;;;;;2.8;100.0;100980;;;;
2023/03/15 00:08:02;;;;;;;2.5;2.5;;;;;;;2.8;100.0;100970;;;;
2023/03/15 00:09:00;;;;;;;2.5;2.5;;;;;;;2.8;100.0;100970;;;;
2023/03/15 00:10:00;;;;;;;2.5;2.5;;;;;;;2.8;100.0;100970;;;;
2023/03/15 00:11:00;;;;;;;2.5;2.5;;;;;;;2.8;100.0;100970;;;;
2023/03/15 00:12:01;;;;;;;2.5;2.5;;;;;;;2.8;100.0;100970;;;;
2023/03/15 00:13:00;;;;;;;2.5;2.5;;;;;;;2.8;100.0;100970;;;;
2023/03/15 00:14:01;;;;;;;2.5;2.5;;;;;;;2.9;100.0;100970;;;;
2023/03/15 00:15:00;;;;;;;2.5;2.5;;;;;;;2.9;100.0;100970;;;;
2023/03/15 00:16:02;;;;;;;2.5;2.5;;;;;;;2.8;100.0;100980;;;;
2023/03/15 00:17:00;;;;;;;2.5;2.5;;;;;;;2.8;100.0;100980;;;;
2023/03/15 00:18:02;;;;;;;2.5;2.5;;;;;;;2.8;100.0;100970;;;;
2023/03/15 00:19:00;;;;;;;2.5;2.5;;;;;;;2.8;100.0;100970;;;;
2023/03/15 00:20:00;;;;;;;2.5;2.5;;;;;;;2.8;100.0;100980;;;;
2023/03/15 00:21:00;;;;;;;2.5;2.5;;;;;;;2.8;100.0;100980;;;;
2023/03/15 00:22:00;;;;;;;2.5;2.5;;;;;;;2.9;100.0;100980;;;;
2023/03/15 00:23:00;;;;;;;2.5;2.5;;;;;;;2.9;100.0;100980;;;;
2023/03/15 00:24:00;;;;;;;2.5;2.5;;;;;;;2.8;100.0;100980;;;;
2023/03/15 00:25:00;;;;;;;2.5;2.5;;;;;;;2.8;100.0;100980;;;;
2023/03/15 00:26:00;;;;;;;2.5;2.5;;;;;;;2.9;100.0;100980;;;;
2023/03/15 00:27:00;;;;;;;2.5;2.5;;;;;;;2.9;100.0;100980;;;;
2023/03/15 00:28:00;;;;;;;2.8;2.7;;;;;;;3.0;100.0;100980;;;;
2023/03/15 00:29:00;;;;;;;2.8;2.7;;;;;;;3.0;100.0;100980;;;;
2023/03/15 00:30:00;;;;;;;2.8;2.7;;;;;;;2.9;100.0;100980;;;;
2023/03/15 00:31:10;;;;;;;2.8;2.7;;;;;;;2.9;100.0;100980;;;;
2023/03/15 00:32:00;;;;;;;2.8;2.7;;;;;;;2.9;100.0;100980;;;;
2023/03/15 00:33:00;;;;;;;2.8;2.7;;;;;;;2.9;100.0;100980;;;;
2023/03/15 00:34:00;;;;;;;2.8;2.7;;;;;;;3.0;100.0;100980;;;;
2023/03/15 00:35:00;;;;;;;2.8;2.7;;;;;;;3.0;100.0;100980;;;;
2023/03/15 00:36:04;;;;;;;2.8;2.7;;;;;;;3.0;100.0;100980;;;;
2023/03/15 00:37:00;;;;;;;2.8;2.7;;;;;;;3.0;100.0;100980;;;;
2023/03/15 00:38:00;;;;;;;2.8;2.7;;;;;;;2.9;100.0;100980;;;;
2023/03/15 00:39:00;;;;;;;2.8;2.7;;;;;;;2.9;100.0;100980;;;;
2023/03/15 00:40:00;;;;;;;2.8;2.7;;;;;;;3.0;100.0;100980;;;;
2023/03/15 00:41:04;;;;;;;2.8;2.7;;;;;;;3.0;100.0;100980;;;;
2023/03/15 00:42:00;;;;;;;2.8;2.7;;;;;;;3.0;100.0;100970;;;;
2023/03/15 00:43:00;;;;;;;2.8;2.7;;;;;;;3.0;100.0;100970;;;;
2023/03/15 00:44:00;;;;;;;2.8;2.7;;;;;;;3.0;100.0;100980;;;;
2023/03/15 00:45:00;;;;;;;2.8;2.7;;;;;;;3.0;100.0;100980;;;;
2023/03/15 00:46:01;;;;;;;2.8;2.7;;;;;;;3.0;100.0;100980;;;;
2023/03/15 00:47:00;;;;;;;2.8;2.7;;;;;;;3.0;100.0;100980;;;;
2023/03/15 00:48:00;;;;;;;2.4;2.4;;;;;;;3.0;100.0;100990;;;;
2023/03/15 00:49:00;;;;;;;2.4;2.4;;;;;;;3.0;100.0;100990;;;;
2023/03/15 00:50:00;;;;;;;2.4;2.4;;;;;;;3.1;100.0;100990;;;;
2023/03/15 00:51:01;;;;;;;2.4;2.4;;;;;;;3.1;100.0;100990;;;;
2023/03/15 00:52:00;;;;;;;2.4;2.4;;;;;;;3.0;100.0;100990;;;;
2023/03/15 00:53:00;;;;;;;2.4;2.4;;;;;;;3.0;100.0;100990;;;;
2023/03/15 00:54:00;;;;;;;2.4;2.4;;;;;;;3.1;100.0;100990;;;;
2023/03/15 00:55:00;;;;;;;2.4;2.4;;;;;;;3.1;100.0;100990;;;;
2023/03/15 00:56:09;;;;;;;2.4;2.4;;;;;;;3.2;100.0;101000;;;;
2023/03/15 00:57:01;;;;;;;2.4;2.4;;;;;;;3.2;100.0;101000;;;;
2023/03/15 00:58:00;;;;;;;2.4;2.4;;;;;;;3.1;100.0;101000;;;;
2023/03/15 00:59:00;;;;;;;2.4;2.4;;;;;;;3.1;100.0;101000;;;;
2023/03/15 01:00:07;;;;;;;2.4;2.4;;;;;;;3.2;100.0;101000;;;;
2023/03/15 01:01:03;;;;;;;2.4;2.4;;;;;;;3.2;100.0;101000;;;;
2023/03/15 01:02:01;;;;;;;2.4;2.4;;;;;;;3.2;100.0;101000;;;;
2023/03/15 01:03:00;;;;;;;2.4;2.4;;;;;;;3.2;100.0;101000;;;;
2023/03/15 01:04:00;;;;;;;2.4;2.4;;;;;;;3.3;100.0;101010;;;;
2023/03/15 01:05:00;;;;;;;2.4;2.4;;;;;;;3.3;100.0;101010;;;;
2023/03/15 01:06:09;;;;;;;2.4;2.4;;;;;;;3.4;100.0;101020;;;;
2023/03/15 01:07:00;;;;;;;2.4;2.4;;;;;;;3.4;100.0;101020;;;;
2023/03/15 01:08:01;;;;;;;2.2;2.2;;;;;;;3.5;100.0;101020;;;;
2023/03/15 01:09:00;;;;;;;2.2;2.2;;;;;;;3.5;100.0;101020;;;;
2023/03/15 01:10:01;;;;;;;2.2;2.2;;;;;;;3.5;100.0;101030;;;;
2023/03/15 01:11:02;;;;;;;2.2;2.2;;;;;;;3.5;100.0;101030;;;;
2023/03/15 01:12:00;;;;;;;2.2;2.2;;;;;;;3.3;100.0;101020;;;;
2023/03/15 01:13:00;;;;;;;2.2;2.2;;;;;;;3.3;100.0;101020;;;;
2023/03/15 01:14:02;;;;;;;2.2;2.2;;;;;;;3.4;100.0;101040;;;;
2023/03/15 01:15:01;;;;;;;2.2;2.2;;;;;;;3.4;100.0;101040;;;;
2023/03/15 01:16:00;;;;;;;2.2;2.2;;;;;;;3.4;100.0;101040;;;;
2023/03/15 01:17:00;;;;;;;2.2;2.2;;;;;;;3.4;100.0;101040;;;;
2023/03/15 01:18:00;;;;;;;2.2;2.2;;;;;;;3.3;100.0;101040;;;;
2023/03/15 01:19:00;;;;;;;2.2;2.2;;;;;;;3.3;100.0;101040;;;;
2023/03/15 01:20:00;;;;;;;2.2;2.2;;;;;;;3.1;100.0;101050;;;;
2023/03/15 01:21:00;;;;;;;2.2;2.2;;;;;;;3.1;100.0;101050;;;;
2023/03/15 01:22:00;;;;;;;2.2;2.2;;;;;;;3.1;100.0;101050;;;;
2023/03/15 01:23:00;;;;;;;2.2;2.2;;;;;;;3.1;100.0;101050;;;;
2023/03/15 01:24:00;;;;;;;2.2;2.2;;;;;;;3.2;100.0;101040;;;;
2023/03/15 01:25:00;;;;;;;2.2;2.2;;;;;;;3.2;100.0;101040;;;;
2023/03/15 01:26:01;;;;;;;2.2;2.2;;;;;;;3.2;100.0;101050;;;;
2023/03/15 01:27:00;;;;;;;2.2;2.2;;;;;;;3.2;100.0;101050;;;;
2023/03/15 01:28:00;;;;;;;2.3;2.3;;;;;;;3.2;100.0;101050;;;;
2023/03/15 01:29:00;;;;;;;2.3;2.3;;;;;;;3.2;100.0;101050;;;;
2023/03/15 01:30:00;;;;;;;2.3;2.3;;;;;;;3.2;100.0;101050;;;;
2023/03/15 01:31:00;;;;;;;2.3;2.3;;;;;;;3.2;100.0;101050;;;;
2023/03/15 01:32:00;;;;;;;2.3;2.3;;;;;;;3.2;100.0;101060;;;;
2023/03/15 01:33:00;;;;;;;2.3;2.3;;;;;;;3.2;100.0;101060;;;;
2023/03/15 01:34:00;;;;;;;2.3;2.3;;;;;;;3.1;100.0;101060;;;;
2023/03/15 01:35:00;;;;;;;2.3;2.3;;;;;;;3.1;100.0;101060;;;;
2023/03/15 01:36:01;;;;;;;2.3;2.3;;;;;;;3.0;100.0;101060;;;;
2023/03/15 01:37:01;;;;;;;2.3;2.3;;;;;;;3.0;100.0;101060;;;;
2023/03/15 01:38:00;;;;;;;2.3;2.3;;;;;;;3.0;100.0;101060;;;;
2023/03/15 01:39:00;;;;;;;2.3;2.3;;;;;;;3.0;100.0;101060;;;;
2023/03/15 01:40:00;;;;;;;2.3;2.3;;;;;;;2.9;100.0;101060;;;;
2023/03/15 01:41:00;;;;;;;2.3;2.3;;;;;;;2.9;100.0;101060;;;;
2023/03/15 01:42:01;;;;;;;2.3;2.3;;;;;;;2.8;100.0;101060;;;;
2023/03/15 01:43:01;;;;;;;2.3;2.3;;;;;;;2.8;100.0;101060;;;;
2023/03/15 01:44:00;;;;;;;2.3;2.3;;;;;;;2.7;100.0;101070;;;;
2023/03/15 01:45:00;;;;;;;2.3;2.3;;;;;;;2.7;100.0;101070;;;;
2023/03/15 01:46:00;;;;;;;2.3;2.3;;;;;;;2.8;100.0;101070;;;;
2023/03/15 01:47:00;;;;;;;2.8;2.7;;;;;;;2.8;100.0;101070;;;;
2023/03/15 01:48:00;;;;;;;2.8;2.7;;;;;;;2.8;100.0;101070;;;;
2023/03/15 01:49:11;;;;;;;2.8;2.7;;;;;;;2.8;100.0;101070;;;;
2023/03/15 01:50:04;;;;;;;2.8;2.7;;;;;;;2.8;100.0;101070;;;;
2023/03/15 01:51:03;;;;;;;2.8;2.7;;;;;;;2.8;100.0;101070;;;;
2023/03/15 01:52:04;;;;;;;2.8;2.7;;;;;;;2.8;100.0;101070;;;;
2023/03/15 01:53:00;;;;;;;2.8;2.7;;;;;;;2.8;100.0;101070;;;;
2023/03/15 01:54:10;;;;;;;2.8;2.7;;;;;;;2.7;100.0;101070;;;;
2023/03/15 01:55:06;;;;;;;2.8;2.7;;;;;;;2.7;100.0;101070;;;;
2023/03/15 01:56:01;;;;;;;2.8;2.7;;;;;;;2.7;100.0;101070;;;;
2023/03/15 01:57:09;;;;;;;2.8;2.7;;;;;;;2.7;100.0;101070;;;;
2023/03/15 01:58:01;;;;;;;2.8;2.7;;;;;;;2.7;100.0;101070;;;;
2023/03/15 01:59:01;;;;;;;2.8;2.7;;;;;;;2.7;100.0;101070;;;;
2023/03/15 02:00:07;;;;;;;2.8;2.7;;;;;;;2.6;100.0;101070;;;;
2023/03/15 02:01:01;;;;;;;2.8;2.7;;;;;;;2.6;100.0;101070;;;;
2023/03/15 02:02:00;;;;;;;2.8;2.7;;;;;;;2.6;100.0;101070;;;;
2023/03/15 02:03:06;;;;;;;2.8;2.7;;;;;;;2.6;100.0;101070;;;;
2023/03/15 02:04:06;;;;;;;2.8;2.7;;;;;;;2.6;100.0;101070;;;;
2023/03/15 02:05:08;;;;;;;2.8;2.7;;;;;;;2.6;100.0;101070;;;;
2023/03/15 02:06:04;;;;;;;2.8;2.7;;;;;;;2.6;100.0;101070;;;;
2023/03/15 02:07:02;;;;;;;2.6;2.5;;;;;;;2.6;100.0;101070;;;;
2023/03/15 02:08:01;;;;;;;2.6;2.5;;;;;;;2.7;100.0;101060;;;;
2023/03/15 02:09:03;;;;;;;2.6;2.5;;;;;;;2.7;100.0;101060;;;;
2023/03/15 02:10:04;;;;;;;2.6;2.5;;;;;;;2.7;100.0;101060;;;;
2023/03/15 02:11:03;;;;;;;2.6;2.5;;;;;;;2.7;100.0;101060;;;;
2023/03/15 02:12:01;;;;;;;2.6;2.5;;;;;;;2.5;100.0;101070;;;;
2023/03/15 02:13:01;;;;;;;2.6;2.5;;;;;;;2.5;100.0;101070;;;;
2023/03/15 02:14:01;;;;;;;2.6;2.5;;;;;;;2.5;100.0;101060;;;;
2023/03/15 02:15:02;;;;;;;2.6;2.5;;;;;;;2.5;100.0;101060;;;;
2023/03/15 02:16:00;;;;;;;2.6;2.5;;;;;;;2.5;100.0;101060;;;;
2023/03/15 02:17:00;;;;;;;2.6;2.5;;;;;;;2.5;100.0;101060;;;;
2023/03/15 02:18:00;;;;;;;2.6;2.5;;;;;;;2.6;100.0;101060;;;;
2023/03/15 02:19:00;;;;;;;2.6;2.5;;;;;;;2.6;100.0;101060;;;;
2023/03/15 02:20:01;;;;;;;2.6;2.5;;;;;;;2.7;100.0;101060;;;;
2023/03/15 02:21:03;;;;;;;2.6;2.5;;;;;;;2.7;100.0;101060;;;;
2023/03/15 02:22:10;;;;;;;2.6;2.5;;;;;;;2.7;100.0;101060;;;;
2023/03/15 02:23:01;;;;;;;2.6;2.5;;;;;;;2.7;100.0;101060;;;;
2023/03/15 02:24:06;;;;;;;2.6;2.5;;;;;;;2.6;100.0;101070;;;;
2023/03/15 02:25:03;;;;;;;2.6;2.5;;;;;;;2.6;100.0;101070;;;;
2023/03/15 02:26:01;;;;;;;2.6;2.5;;;;;;;2.6;100.0;101070;;;;
2023/03/15 02:27:00;;;;;;;2.9;2.8;;;;;;;2.6;100.0;101070;;;;
2023/03/15 02:28:02;;;;;;;2.9;2.8;;;;;;;2.6;100.0;101070;;;;
2023/03/15 02:29:00;;;;;;;2.9;2.8;;;;;;;2.6;100.0;101070;;;;
2023/03/15 02:30:02;;;;;;;2.9;2.8;;;;;;;2.6;100.0;101070;;;;
2023/03/15 02:31:00;;;;;;;2.9;2.8;;;;;;;2.6;100.0;101070;;;;
2023/03/15 02:32:03;;;;;;;2.9;2.8;;;;;;;2.6;100.0;101070;;;;
2023/03/15 02:33:02;;;;;;;2.9;2.8;;;;;;;2.6;100.0;101070;;;;
2023/03/15 02:34:02;;;;;;;2.9;2.8;;;;;;;2.5;100.0;101070;;;;
2023/03/15 02:35:00;;;;;;;2.9;2.8;;;;;;;2.5;100.0;101070;;;;
2023/03/15 02:36:06;;;;;;;2.9;2.8;;;;;;;2.6;100.0;101070;;;;
2023/03/15 02:37:01;;;;;;;2.9;2.8;;;;;;;2.6;100.0;101070;;;;
2023/03/15 02:38:01;;;;;;;2.9;2.8;;;;;;;2.6;100.0;101070;;;;
2023/03/15 02:39:01;;;;;;;2.9;2.8;;;;;;;2.6;100.0;101070;;;;
2023/03/15 02:40:00;;;;;;;2.9;2.8;;;;;;;2.7;100.0;101070;;;;
2023/03/15 02:41:00;;;;;;;2.9;2.8;;;;;;;2.7;100.0;101070;;;;
2023/03/15 02:42:00;;;;;;;2.9;2.8;;;;;;;2.7;100.0;101070;;;;
2023/03/15 02:43:04;;;;;;;2.9;2.8;;;;;;;2.7;100.0;101070;;;;
2023/03/15 02:44:04;;;;;;;2.9;2.8;;;;;;;2.6;100.0;101070;;;;
2023/03/15 02:45:01;;;;;;;2.9;2.8;;;;;;;2.6;100.0;101070;;;;
2023/03/15 02:46:02;;;;;;;2.9;2.8;;;;;;;2.7;100.0;101080;;;;
2023/03/15 02:47:03;;;;;;;2.8;2.7;;;;;;;2.7;100.0;101080;;;;
2023/03/15 02:48:01;;;;;;;2.8;2.7;;;;;;;2.7;100.0;101080;;;;
2023/03/15 02:49:01;;;;;;;2.8;2.7;;;;;;;2.7;100.0;101080;;;;
2023/03/15 02:50:00;;;;;;;2.8;2.7;;;;;;;2.7;100.0;101080;;;;
2023/03/15 02:51:01;;;;;;;2.8;2.7;;;;;;;2.7;100.0;101080;;;;
2023/03/15 02:52:00;;;;;;;2.8;2.7;;;;;;;2.7;100.0;101080;;;;
2023/03/15 02:53:01;;;;;;;2.8;2.7;;;;;;;2.7;100.0;101080;;;;
2023/03/15 02:54:00;;;;;;;2.8;2.7;;;;;;;2.6;100.0;101080;;;;
2023/03/15 02:55:01;;;;;;;2.8;2.7;;;;;;;2.6;100.0;101080;;;;
2023/03/15 02:56:00;;;;;;;2.8;2.7;;;;;;;2.7;100.0;101080;;;;
2023/03/15 02:57:01;;;;;;;2.8;2.7;;;;;;;2.7;100.0;101080;;;;
2023/03/15 02:58:01;;;;;;;2.8;2.7;;;;;;;2.7;100.0;101090;;;;
2023/03/15 02:59:00;;;;;;;2.8;2.7;;;;;;;2.7;100.0;101090;;;;
2023/03/15 03:00:13;;;;;;;2.8;2.7;;;;;;;2.7;100.0;101090;;;;
2023/03/15 03:01:00;;;;;;;2.8;2.7;;;;;;;2.7;100.0;101090;;;;
2023/03/15 03:02:00;;;;;;;2.8;2.7;;;;;;;2.6;100.0;101090;;;;
2023/03/15 03:03:00;;;;;;;2.8;2.7;;;;;;;2.6;100.0;101090;;;;
2023/03/15 03:04:00;;;;;;;2.8;2.7;;;;;;;2.6;100.0;101100;;;;
2023/03/15 03:05:00;;;;;;;2.8;2.7;;;;;;;2.6;100.0;101100;;;;
2023/03/15 03:06:00;;;;;;;2.8;2.7;;;;;;;2.6;100.0;101100;;;;
2023/03/15 03:07:00;;;;;;;2.9;2.8;;;;;;;2.6;100.0;101100;;;;
2023/03/15 03:08:01;;;;;;;2.9;2.8;;;;;;;2.7;100.0;101100;;;;
2023/03/15 03:09:01;;;;;;;2.9;2.8;;;;;;;2.7;100.0;101100;;;;
2023/03/15 03:10:00;;;;;;;2.9;2.8;;;;;;;2.7;100.0;101100;;;;
2023/03/15 03:11:00;;;;;;;2.9;2.8;;;;;;;2.7;100.0;101100;;;;
2023/03/15 03:12:00;;;;;;;2.9;2.8;;;;;;;2.7;100.0;101100;;;;
2023/03/15 03:13:00;;;;;;;2.9;2.8;;;;;;;2.7;100.0;101100;;;;
2023/03/15 03:14:00;;;;;;;2.9;2.8;;;;;;;2.8;100.0;101110;;;;
2023/03/15 03:15:02;;;;;;;2.9;2.8;;;;;;;2.8;100.0;101110;;;;
2023/03/15 03:16:00;;;;;;;2.9;2.8;;;;;;;2.7;100.0;101120;;;;
2023/03/15 03:17:00;;;;;;;2.9;2.8;;;;;;;2.7;100.0;101120;;;;
2023/03/15 03:18:00;;;;;;;2.9;2.8;;;;;;;2.7;100.0;101120;;;;
2023/03/15 03:19:00;;;;;;;2.9;2.8;;;;;;;2.7;100.0;101120;;;;
2023/03/15 03:20:00;;;;;;;2.9;2.8;;;;;;;2.7;100.0;101130;;;;
2023/03/15 03:21:01;;;;;;;2.9;2.8;;;;;;;2.7;100.0;101130;;;;
2023/03/15 03:22:00;;;;;;;2.9;2.8;;;;;;;2.7;100.0;101130;;;;
2023/03/15 03:23:04;;;;;;;2.9;2.8;;;;;;;2.7;100.0;101130;;;;
2023/03/15 03:24:00;;;;;;;2.9;2.8;;;;;;;2.7;100.0;101130;;;;
2023/03/15 03:25:01;;;;;;;2.9;2.8;;;;;;;2.7;100.0;101130;;;;
2023/03/15 03:26:00;;;;;;;2.9;2.8;;;;;;;2.7;100.0;101130;;;;
2023/03/15 03:27:00;;;;;;;2.5;2.5;;;;;;;2.7;100.0;101130;;;;
2023/03/15 03:28:02;;;;;;;2.5;2.5;;;;;;;2.7;100.0;101140;;;;
2023/03/15 03:29:00;;;;;;;2.5;2.5;;;;;;;2.7;100.0;101140;;;;
2023/03/15 03:30:00;;;;;;;2.5;2.5;;;;;;;2.7;100.0;101140;;;;
2023/03/15 03:31:00;;;;;;;2.5;2.5;;;;;;;2.7;100.0;101140;;;;
2023/03/15 03:32:00;;;;;;;2.5;2.5;;;;;;;2.6;100.0;101140;;;;
2023/03/15 03:33:00;;;;;;;2.5;2.5;;;;;;;2.6;100.0;101140;;;;
2023/03/15 03:34:00;;;;;;;2.5;2.5;;;;;;;2.6;100.0;101150;;;;
2023/03/15 03:35:00;;;;;;;2.5;2.5;;;;;;;2.6;100.0;101150;;;;
2023/03/15 03:36:03;;;;;;;2.5;2.5;;;;;;;2.6;100.0;101150;;;;
2023/03/15 03:37:00;;;;;;;2.5;2.5;;;;;;;2.6;100.0;101150;;;;
2023/03/15 03:38:00;;;;;;;2.5;2.5;;;;;;;2.5;100.0;101150;;;;
2023/03/15 03:39:00;;;;;;;2.5;2.5;;;;;;;2.5;100.0;101150;;;;
2023/03/15 03:40:00;;;;;;;2.5;2.5;;;;;;;2.5;100.0;101150;;;;
2023/03/15 03:41:00;;;;;;;2.5;2.5;;;;;;;2.5;100.0;101150;;;;
2023/03/15 03:42:01;;;;;;;2.5;2.5;;;;;;;2.5;100.0;101160;;;;
2023/03/15 03:43:00;;;;;;;2.5;2.5;;;;;;;2.5;100.0;101160;;;;
2023/03/15 03:44:00;;;;;;;2.5;2.5;;;;;;;2.4;100.0;101160;;;;
2023/03/15 03:45:00;;;;;;;2.5;2.5;;;;;;;2.4;100.0;101160;;;;
2023/03/15 03:46:00;;;;;;;2.5;2.5;;;;;;;2.3;100.0;101170;;;;
2023/03/15 03:47:00;;;;;;;2.4;2.4;;;;;;;2.3;100.0;101170;;;;
2023/03/15 03:48:00;;;;;;;2.4;2.4;;;;;;;2.3;100.0;101170;;;;
2023/03/15 03:49:00;;;;;;;2.4;2.4;;;;;;;2.3;100.0;101170;;;;
2023/03/15 03:50:00;;;;;;;2.4;2.4;;;;;;;2.3;100.0;101180;;;;
2023/03/15 03:51:00;;;;;;;2.4;2.4;;;;;;;2.3;100.0;101180;;;;
2023/03/15 03:52:01;;;;;;;2.4;2.4;;;;;;;2.2;100.0;101180;;;;
2023/03/15 03:53:00;;;;;;;2.4;2.4;;;;;;;2.2;100.0;101180;;;;
2023/03/15 03:54:01;;;;;;;2.4;2.4;;;;;;;2.2;100.0;101180;;;;
2023/03/15 03:55:00;;;;;;;2.4;2.4;;;;;;;2.2;100.0;101180;;;;
2023/03/15 03:56:03;;;;;;;2.4;2.4;;;;;;;2.3;100.0;101180;;;;
2023/03/15 03:57:00;;;;;;;2.4;2.4;;;;;;;2.3;100.0;101180;;;;
2023/03/15 03:58:00;;;;;;;2.4;2.4;;;;;;;2.3;100.0;101170;;;;
2023/03/15 03:59:00;;;;;;;2.4;2.4;;;;;;;2.3;100.0;101170;;;;
2023/03/15 04:00:00;;;;;;;2.4;2.4;;;;;;;2.2;100.0;101180;;;;
2023/03/15 04:01:00;;;;;;;2.4;2.4;;;;;;;2.2;100.0;101180;;;;
2023/03/15 04:02:00;;;;;;;2.4;2.4;;;;;;;2.2;100.0;101180;;;;
2023/03/15 04:03:00;;;;;;;2.4;2.4;;;;;;;2.2;100.0;101180;;;;
2023/03/15 04:04:00;;;;;;;2.4;2.4;;;;;;;2.2;100.0;101180;;;;
2023/03/15 04:05:00;;;;;;;2.4;2.4;;;;;;;2.2;100.0;101180;;;;
2023/03/15 04:06:00;;;;;;;2.4;2.4;;;;;;;2.2;100.0;101180;;;;
2023/03/15 04:07:00;;;;;;;2.9;2.8;;;;;;;2.2;100.0;101180;;;;
2023/03/15 04:08:00;;;;;;;2.9;2.8;;;;;;;2.2;100.0;101180;;;;
2023/03/15 04:09:03;;;;;;;2.9;2.8;;;;;;;2.2;100.0;101180;;;;
2023/03/15 04:10:01;;;;;;;2.9;2.8;;;;;;;2.2;100.0;101180;;;;
2023/03/15 04:11:02;;;;;;;2.9;2.8;;;;;;;2.2;100.0;101180;;;;
2023/03/15 04:12:00;;;;;;;2.9;2.8;;;;;;;2.2;100.0;101180;;;;
2023/03/15 04:13:00;;;;;;;2.9;2.8;;;;;;;2.2;100.0;101180;;;;
2023/03/15 04:14:00;;;;;;;2.9;2.8;;;;;;;2.0;100.0;101190;;;;
2023/03/15 04:15:00;;;;;;;2.9;2.8;;;;;;;2.0;100.0;101190;;;;
2023/03/15 04:16:02;;;;;;;2.9;2.8;;;;;;;2.0;100.0;101200;;;;
2023/03/15 04:17:02;;;;;;;2.9;2.8;;;;;;;2.0;100.0;101200;;;;
2023/03/15 04:18:04;;;;;;;2.9;2.8;;;;;;;2.0;100.0;101200;;;;
2023/03/15 04:19:00;;;;;;;2.9;2.8;;;;;;;2.0;100.0;101200;;;;
2023/03/15 04:20:00;;;;;;;2.9;2.8;;;;;;;2.0;100.0;101200;;;;
2023/03/15 04:21:00;;;;;;;2.9;2.8;;;;;;;2.0;100.0;101200;;;;
2023/03/15 04:22:05;;;;;;;2.9;2.8;;;;;;;1.9;100.0;101200;;;;
2023/03/15 04:23:00;;;;;;;2.9;2.8;;;;;;;1.9;100.0;101200;;;;
2023/03/15 04:24:00;;;;;;;2.9;2.8;;;;;;;1.9;100.0;101210;;;;
2023/03/15 04:25:00;;;;;;;2.9;2.8;;;;;;;1.9;100.0;101210;;;;
2023/03/15 04:26:00;;;;;;;2.9;2.8;;;;;;;1.9;100.0;101210;;;;
2023/03/15 04:27:00;;;;;;;3.0;2.9;;;;;;;1.9;100.0;101210;;;;
2023/03/15 04:28:01;;;;;;;3.0;2.9;;;;;;;1.9;100.0;101220;;;;
2023/03/15 04:29:00;;;;;;;3.0;2.9;;;;;;;1.9;100.0;101220;;;;
2023/03/15 04:30:04;;;;;;;3.0;2.9;;;;;;;1.9;100.0;101230;;;;
2023/03/15 04:31:00;;;;;;;3.0;2.9;;;;;;;1.9;100.0;101230;;;;
2023/03/15 04:32:00;;;;;;;3.0;2.9;;;;;;;1.9;100.0;101230;;;;
2023/03/15 04:33:02;;;;;;;3.0;2.9;;;;;;;1.9;100.0;101230;;;;
2023/03/15 04:34:01;;;;;;;3.0;2.9;;;;;;;1.9;100.0;101240;;;;
2023/03/15 04:35:01;;;;;;;3.0;2.9;;;;;;;1.9;100.0;101240;;;;
2023/03/15 04:36:01;;;;;;;3.0;2.9;;;;;;;1.9;100.0;101240;;;;
2023/03/15 04:37:01;;;;;;;3.0;2.9;;;;;;;1.9;100.0;101240;;;;
2023/03/15 04:38:02;;;;;;;3.0;2.9;;;;;;;2.0;100.0;101230;;;;
2023/03/15 04:39:04;;;;;;;3.0;2.9;;;;;;;2.0;100.0;101230;;;;
2023/03/15 04:40:00;;;;;;;3.0;2.9;;;;;;;1.9;100.0;101230;;;;
2023/03/15 04:41:00;;;;;;;3.0;2.9;;;;;;;1.9;100.0;101230;;;;
2023/03/15 04:42:00;;;;;;;3.0;2.9;;;;;;;1.9;100.0;101240;;;;
2023/03/15 04:43:02;;;;;;;3.0;2.9;;;;;;;1.9;100.0;101240;;;;
2023/03/15 04:44:04;;;;;;;3.0;2.9;;;;;;;1.9;100.0;101240;;;;
2023/03/15 04:45:00;;;;;;;3.0;2.9;;;;;;;1.9;100.0;101240;;;;
2023/03/15 04:46:00;;;;;;;3.0;2.9;;;;;;;1.9;100.0;101250;;;;
2023/03/15 04:47:00;;;;;;;3.1;3.0;;;;;;;1.9;100.0;101250;;;;
2023/03/15 04:48:01;;;;;;;3.1;3.0;;;;;;;1.9;100.0;101250;;;;
2023/03/15 04:49:02;;;;;;;3.1;3.0;;;;;;;1.9;100.0;101250;;;;
2023/03/15 04:50:00;;;;;;;3.1;3.0;;;;;;;1.9;100.0;101250;;;;
2023/03/15 04:51:00;;;;;;;3.1;3.0;;;;;;;1.9;100.0;101250;;;;
2023/03/15 04:52:00;;;;;;;3.1;3.0;;;;;;;1.9;100.0;101250;;;;
2023/03/15 04:53:00;;;;;;;3.1;3.0;;;;;;;1.9;100.0;101250;;;;
2023/03/15 04:54:00;;;;;;;3.1;3.0;;;;;;;1.8;100.0;101250;;;;
2023/03/15 04:55:00;;;;;;;3.1;3.0;;;;;;;1.8;100.0;101250;;;;
2023/03/15 04:56:03;;;;;;;3.1;3.0;;;;;;;1.9;100.0;101250;;;;
2023/03/15 04:57:00;;;;;;;3.1;3.0;;;;;;;1.9;100.0;101250;;;;
2023/03/15 04:58:00;;;;;;;3.1;3.0;;;;;;;1.8;100.0;101250;;;;
2023/03/15 04:59:00;;;;;;;3.1;3.0;;;;;;;1.8;100.0;101250;;;;
2023/03/15 05:00:00;;;;;;;3.1;3.0;;;;;;;1.9;100.0;101260;;;;
2023/03/15 05:01:00;;;;;;;3.1;3.0;;;;;;;1.9;100.0;101260;;;;
2023/03/15 05:02:03;;;;;;;3.1;3.0;;;;;;;1.8;100.0;101270;;;;
2023/03/15 05:03:00;;;;;;;3.1;3.0;;;;;;;1.8;100.0;101270;;;;
2023/03/15 05:04:00;;;;;;;3.1;3.0;;;;;;;1.8;100.0;101270;;;;
2023/03/15 05:05:00;;;;;;;3.1;3.0;;;;;;;1.8;100.0;101270;;;;
2023/03/15 05:06:06;;;;;;;3.1;3.0;;;;;;;1.8;100.0;101270;;;;
2023/03/15 05:07:00;;;;;;;3.2;3.1;;;;;;;1.8;100.0;101270;;;;
2023/03/15 05:08:00;;;;;;;3.2;3.1;;;;;;;1.8;100.0;101280;;;;
2023/03/15 05:09:00;;;;;;;3.2;3.1;;;;;;;1.8;100.0;101280;;;;
2023/03/15 05:10:00;;;;;;;3.2;3.1;;;;;;;1.8;100.0;101280;;;;
2023/03/15 05:11:01;;;;;;;3.2;3.1;;;;;;;1.8;100.0;101280;;;;
2023/03/15 05:12:01;;;;;;;3.2;3.1;;;;;;;1.7;100.0;101280;;;;
2023/03/15 05:13:00;;;;;;;3.2;3.1;;;;;;;1.7;100.0;101280;;;;
2023/03/15 05:14:00;;;;;;;3.2;3.1;;;;;;;1.7;100.0;101280;;;;
2023/03/15 05:15:00;;;;;;;3.2;3.1;;;;;;;1.7;100.0;101280;;;;
2023/03/15 05:16:00;;;;;;;3.2;3.1;;;;;;;1.8;100.0;101280;;;;
2023/03/15 05:17:01;;;;;;;3.2;3.1;;;;;;;1.8;100.0;101280;;;;
2023/03/15 05:18:00;;;;;;;3.2;3.1;;;;;;;1.7;100.0;101290;;;;
2023/03/15 05:19:00;;;;;;;3.2;3.1;;;;;;;1.7;100.0;101290;;;;
2023/03/15 05:20:00;;;;;;;3.2;3.1;;;;;;;1.8;100.0;101290;;;;
2023/03/15 05:21:00;;;;;;;3.2;3.1;;;;;;;1.8;100.0;101290;;;;
2023/03/15 05:22:01;;;;;;;3.2;3.1;;;;;;;1.7;100.0;101290;;;;
2023/03/15 05:23:01;;;;;;;3.2;3.1;;;;;;;1.7;100.0;101290;;;;
2023/03/15 05:24:00;;;;;;;3.2;3.1;;;;;;;1.7;100.0;101280;;;;
2023/03/15 05:25:00;;;;;;;3.2;3.1;;;;;;;1.7;100.0;101280;;;;
2023/03/15 05:26:00;;;;;;;2.7;2.6;;;;;;;1.7;100.0;101290;;;;
2023/03/15 05:27:00;;;;;;;2.7;2.6;;;;;;;1.7;100.0;101290;;;;
2023/03/15 05:28:03;;;;;;;2.7;2.6;;;;;;;1.7;100.0;101290;;;;
2023/03/15 05:29:00;;;;;;;2.7;2.6;;;;;;;1.7;100.0;101290;;;;
2023/03/15 05:30:03;;;;;;;2.7;2.6;;;;;;;1.7;100.0;101300;;;;
2023/03/15 05:31:01;;;;;;;2.7;2.6;;;;;;;1.7;100.0;101300;;;;
2023/03/15 05:32:03;;;;;;;2.7;2.6;;;;;;;1.6;100.0;101300;;;;
2023/03/15 05:33:03;;;;;;;2.7;2.6;;;;;;;1.6;100.0;101300;;;;
2023/03/15 05:34:03;;;;;;;2.7;2.6;;;;;;;1.6;100.0;101300;;;;
2023/03/15 05:35:01;;;;;;;2.7;2.6;;;;;;;1.6;100.0;101300;;;;
2023/03/15 05:36:00;;;;;;;2.7;2.6;;;;;;;1.6;100.0;101300;;;;
2023/03/15 05:37:00;;;;;;;2.7;2.6;;;;;;;1.6;100.0;101300;;;;
2023/03/15 05:38:00;;;;;;;2.7;2.6;;;;;;;1.6;100.0;101290;;;;
2023/03/15 05:39:02;;;;;;;2.7;2.6;;;;;;;1.6;100.0;101290;;;;
2023/03/15 05:40:00;;;;;;;2.7;2.6;;;;;;;1.5;100.0;101300;;;;
2023/03/15 05:41:01;;;;;;;2.7;2.6;;;;;;;1.5;100.0;101300;;;;
2023/03/15 05:42:00;;;;;;;2.7;2.6;;;;;;;1.6;100.0;101300;;;;
2023/03/15 05:43:00;;;;;;;2.7;2.6;;;;;;;1.6;100.0;101300;;;;
2023/03/15 05:44:00;;;;;;;2.7;2.6;;;;;;;1.5;100.0;101310;;;;
2023/03/15 05:45:00;;;;;;;2.7;2.6;;;;;;;1.5;100.0;101310;;;;
2023/03/15 05:46:00;;;;;;;3.7;3.6;;;;;;;1.5;100.0;101310;;;;
2023/03/15 05:47:00;;;;;;;3.7;3.6;;;;;;;1.5;100.0;101310;;;;
2023/03/15 05:48:00;;;;;;;3.7;3.6;;;;;;;1.5;100.0;101310;;;;
2023/03/15 05:49:00;;;;;;;3.7;3.6;;;;;;;1.5;100.0;101310;;;;
2023/03/15 05:50:00;;;;;;;3.7;3.6;;;;;;;1.5;100.0;101320;;;;
2023/03/15 05:51:00;;;;;;;3.7;3.6;;;;;;;1.5;100.0;101320;;;;
2023/03/15 05:52:00;;;;;;;3.7;3.6;;;;;;;1.5;100.0;101330;;;;
2023/03/15 05:53:00;;;;;;;3.7;3.6;;;;;;;1.5;100.0;101330;;;;
2023/03/15 05:54:00;;;;;;;3.7;3.6;;;;;;;1.4;100.0;101330;;;;
2023/03/15 05:55:00;;;;;;;3.7;3.6;;;;;;;1.4;100.0;101330;;;;
2023/03/15 05:56:00;;;;;;;3.7;3.6;;;;;;;1.4;100.0;101330;;;;
2023/03/15 05:57:00;;;;;;;3.7;3.6;;;;;;;1.4;100.0;101330;;;;
2023/03/15 05:58:00;;;;;;;3.7;3.6;;;;;;;1.4;100.0;101330;;;;
2023/03/15 05:59:01;;;;;;;3.7;3.6;;;;;;;1.4;100.0;101330;;;;
2023/03/15 06:00:00;;;;;;;3.7;3.6;;;;;;;1.3;100.0;101340;;;;
2023/03/15 06:01:01;;;;;;;3.7;3.6;;;;;;;1.3;100.0;101340;;;;
2023/03/15 06:02:00;;;;;;;3.7;3.6;;;;;;;1.4;100.0;101340;;;;
2023/03/15 06:03:00;;;;;;;3.7;3.6;;;;;;;1.4;100.0;101340;;;;
2023/03/15 06:04:00;;;;;;;3.7;3.6;;;;;;;1.4;100.0;101340;;;;
2023/03/15 06:05:00;;;;;;;3.7;3.6;;;;;;;1.4;100.0;101340;;;;
2023/03/15 06:06:02;;;;;;;2.7;2.6;;;;;;;1.5;100.0;101350;;;;
2023/03/15 06:07:00;;;;;;;2.7;2.6;;;;;;;1.5;100.0;101350;;;;
2023/03/15 06:08:00;;;;;;;2.7;2.6;;;;;;;1.4;100.0;101350;;;;
2023/03/15 06:09:00;;;;;;;2.7;2.6;;;;;;;1.4;100.0;101350;;;;
2023/03/15 06:10:00;;;;;;;2.7;2.6;;;;;;;1.5;100.0;101350;;;;
2023/03/15 06:11:00;;;;;;;2.7;2.6;;;;;;;1.5;100.0;101350;;;;
2023/03/15 06:12:00;;;;;;;2.7;2.6;;;;;;;1.5;100.0;101360;;;;
2023/03/15 06:13:00;;;;;;;2.7;2.6;;;;;;;1.5;100.0;101360;;;;
2023/03/15 06:14:00;;;;;;;2.7;2.6;;;;;;;1.6;100.0;101350;;;;
2023/03/15 06:15:00;;;;;;;2.7;2.6;;;;;;;1.6;100.0;101350;;;;
2023/03/15 06:16:00;;;;;;;2.7;2.6;;;;;;;1.6;100.0;101360;;;;
2023/03/15 06:17:00;;;;;;;2.7;2.6;;;;;;;1.6;100.0;101360;;;;
2023/03/15 06:18:00;;;;;;;2.7;2.6;;;;;;;1.7;100.0;101360;;;;
2023/03/15 06:19:00;;;;;;;2.7;2.6;;;;;;;1.7;100.0;101360;;;;
2023/03/15 06:20:00;;;;;;;2.7;2.6;;;;;;;1.6;100.0;101360;;;;
2023/03/15 06:21:00;;;;;;;2.7;2.6;;;;;;;1.6;100.0;101360;;;;
2023/03/15 06:22:00;;;;;;;2.7;2.6;;;;;;;1.5;100.0;101360;;;;
2023/03/15 06:23:00;;;;;;;2.7;2.6;;;;;;;1.5;100.0;101360;;;;
2023/03/15 06:24:00;;;;;;;2.7;2.6;;;;;;;1.6;100.0;101360;;;;
2023/03/15 06:25:02;;;;;;;2.7;2.6;;;;;;;1.6;100.0;101360;;;;
2023/03/15 06:26:00;;;;;;;3.3;3.2;;;;;;;1.6;100.0;101370;;;;
2023/03/15 06:27:00;;;;;;;3.3;3.2;;;;;;;1.6;100.0;101370;;;;
2023/03/15 06:28:00;;;;;;;3.3;3.2;;;;;;;1.6;100.0;101370;;;;
2023/03/15 06:29:00;;;;;;;3.3;3.2;;;;;;;1.6;100.0;101370;;;;